sensor_id;sensor_type;location;lat;lon;timestamp;temperature;humidity
15172;DHT22;7686;52.184;9.280;2023-02-03T00:01:42;26.40;34.80
15172;DHT22;7686;52.184;9.280;2023-02-03T00:04:09;26.40;34.80
15172;DHT22;7686;52.184;9.280;2023-02-03T00:06:35;26.40;34.80
15172;DHT22;7686;52.184;9.280;2023-02-03T00:09:02;26.40;34.80
15172;DHT22;7686;52.184;9.280;2023-02-03T00:11:29;26.40;34.80
15172;DHT22;7686;52.184;9.280;2023-02-03T00:13:56;26.40;34.80
15172;DHT22;7686;52.184;9.280;2023-02-03T00:16:23;26.40;34.80
15172;DHT22;7686;52.184;9.280;2023-02-03T00:18:50;26.40;34.80
15172;DHT22;7686;52.184;9.280;2023-02-03T00:21:16;26.40;34.80
15172;DHT22;7686;52.184;9.280;2023-02-03T00:23:43;26.40;34.80
15172;DHT22;7686;52.184;9.280;2023-02-03T00:26:12;26.50;35.00
15172;DHT22;7686;52.184;9.280;2023-02-03T00:28:39;26.40;34.90
15172;DHT22;7686;52.184;9.280;2023-02-03T00:31:14;26.40;34.90
15172;DHT22;7686;52.184;9.280;2023-02-03T00:33:41;26.40;34.90
15172;DHT22;7686;52.184;9.280;2023-02-03T00:36:08;26.40;34.80
15172;DHT22;7686;52.184;9.280;2023-02-03T00:38:35;26.40;34.90
15172;DHT22;7686;52.184;9.280;2023-02-03T00:41:01;26.40;34.90
15172;DHT22;7686;52.184;9.280;2023-02-03T00:43:28;26.40;34.90
15172;DHT22;7686;52.184;9.280;2023-02-03T00:45:55;26.40;34.90
15172;DHT22;7686;52.184;9.280;2023-02-03T00:48:22;26.50;35.00
15172;DHT22;7686;52.184;9.280;2023-02-03T00:50:48;26.40;34.90
15172;DHT22;7686;52.184;9.280;2023-02-03T00:53:15;26.40;34.90
15172;DHT22;7686;52.184;9.280;2023-02-03T00:55:42;26.40;34.90
15172;DHT22;7686;52.184;9.280;2023-02-03T00:58:09;26.40;34.90
15172;DHT22;7686;52.184;9.280;2023-02-03T01:00:36;26.40;34.90
15172;DHT22;7686;52.184;9.280;2023-02-03T01:03:02;26.40;34.90
15172;DHT22;7686;52.184;9.280;2023-02-03T01:05:29;26.40;34.90
15172;DHT22;7686;52.184;9.280;2023-02-03T01:07:56;26.40;34.90
15172;DHT22;7686;52.184;9.280;2023-02-03T01:10:22;26.40;34.90
15172;DHT22;7686;52.184;9.280;2023-02-03T01:12:49;26.40;34.90
15172;DHT22;7686;52.184;9.280;2023-02-03T01:15:16;26.40;34.90
15172;DHT22;7686;52.184;9.280;2023-02-03T01:17:43;26.40;35.00
15172;DHT22;7686;52.184;9.280;2023-02-03T01:20:10;26.40;34.90
15172;DHT22;7686;52.184;9.280;2023-02-03T01:22:41;26.40;34.90
15172;DHT22;7686;52.184;9.280;2023-02-03T01:25:08;26.40;34.90
15172;DHT22;7686;52.184;9.280;2023-02-03T01:27:35;26.40;34.90
15172;DHT22;7686;52.184;9.280;2023-02-03T01:30:02;26.40;34.90
15172;DHT22;7686;52.184;9.280;2023-02-03T01:32:29;26.40;34.90
15172;DHT22;7686;52.184;9.280;2023-02-03T01:34:55;26.40;34.90
15172;DHT22;7686;52.184;9.280;2023-02-03T01:37:22;26.40;34.90
15172;DHT22;7686;52.184;9.280;2023-02-03T01:39:48;26.40;34.90
15172;DHT22;7686;52.184;9.280;2023-02-03T01:42:15;26.40;34.90
15172;DHT22;7686;52.184;9.280;2023-02-03T01:52:23;26.40;35.00
15172;DHT22;7686;52.184;9.280;2023-02-03T01:54:51;26.40;34.90
15172;DHT22;7686;52.184;9.280;2023-02-03T01:57:21;26.40;35.00
15172;DHT22;7686;52.184;9.280;2023-02-03T01:59:52;26.40;35.00
15172;DHT22;7686;52.184;9.280;2023-02-03T02:02:19;26.40;35.00
15172;DHT22;7686;52.184;9.280;2023-02-03T02:04:55;26.40;35.00
15172;DHT22;7686;52.184;9.280;2023-02-03T02:07:23;26.40;35.00
15172;DHT22;7686;52.184;9.280;2023-02-03T02:09:51;26.40;35.00
15172;DHT22;7686;52.184;9.280;2023-02-03T02:12:17;26.40;35.00
15172;DHT22;7686;52.184;9.280;2023-02-03T02:14:45;26.40;35.00
15172;DHT22;7686;52.184;9.280;2023-02-03T02:31:35;26.40;35.00
15172;DHT22;7686;52.184;9.280;2023-02-03T02:34:31;26.30;34.90
15172;DHT22;7686;52.184;9.280;2023-02-03T02:39:47;26.40;35.00
15172;DHT22;7686;52.184;9.280;2023-02-03T02:47:33;26.30;34.90
15172;DHT22;7686;52.184;9.280;2023-02-03T02:50:05;26.40;35.00
15172;DHT22;7686;52.184;9.280;2023-02-03T02:52:38;26.30;35.00
15172;DHT22;7686;52.184;9.280;2023-02-03T02:55:41;26.30;35.00
15172;DHT22;7686;52.184;9.280;2023-02-03T02:58:11;26.30;34.90
15172;DHT22;7686;52.184;9.280;2023-02-03T03:00:39;26.40;35.00
15172;DHT22;7686;52.184;9.280;2023-02-03T03:03:23;26.40;35.00
15172;DHT22;7686;52.184;9.280;2023-02-03T03:05:53;26.30;35.00
15172;DHT22;7686;52.184;9.280;2023-02-03T03:08:27;26.30;34.90
15172;DHT22;7686;52.184;9.280;2023-02-03T03:10:57;26.30;35.00
15172;DHT22;7686;52.184;9.280;2023-02-03T03:13:37;26.30;35.00
15172;DHT22;7686;52.184;9.280;2023-02-03T03:16:06;26.40;35.10
15172;DHT22;7686;52.184;9.280;2023-02-03T03:18:42;26.40;35.00
15172;DHT22;7686;52.184;9.280;2023-02-03T03:21:15;26.30;34.90
15172;DHT22;7686;52.184;9.280;2023-02-03T03:23:46;26.30;35.00
15172;DHT22;7686;52.184;9.280;2023-02-03T03:26:26;26.30;35.00
15172;DHT22;7686;52.184;9.280;2023-02-03T03:29:14;26.30;35.00
15172;DHT22;7686;52.184;9.280;2023-02-03T03:31:44;26.30;35.00
15172;DHT22;7686;52.184;9.280;2023-02-03T03:34:11;26.30;35.00
15172;DHT22;7686;52.184;9.280;2023-02-03T03:39:57;26.30;35.00
15172;DHT22;7686;52.184;9.280;2023-02-03T03:42:29;26.30;35.00
15172;DHT22;7686;52.184;9.280;2023-02-03T03:48:00;26.30;34.90
15172;DHT22;7686;52.184;9.280;2023-02-03T03:50:43;26.30;35.00
15172;DHT22;7686;52.184;9.280;2023-02-03T03:53:12;26.30;35.00
15172;DHT22;7686;52.184;9.280;2023-02-03T03:55:42;26.30;35.00
15172;DHT22;7686;52.184;9.280;2023-02-03T03:58:21;26.30;35.20
15172;DHT22;7686;52.184;9.280;2023-02-03T04:00:51;26.30;35.00
15172;DHT22;7686;52.184;9.280;2023-02-03T04:03:32;26.30;35.00
15172;DHT22;7686;52.184;9.280;2023-02-03T04:06:01;26.30;35.00
15172;DHT22;7686;52.184;9.280;2023-02-03T04:08:27;26.30;35.00
15172;DHT22;7686;52.184;9.280;2023-02-03T04:10:54;26.30;35.00
15172;DHT22;7686;52.184;9.280;2023-02-03T04:13:20;26.30;35.00
15172;DHT22;7686;52.184;9.280;2023-02-03T04:15:47;26.30;35.00
15172;DHT22;7686;52.184;9.280;2023-02-03T04:18:15;26.30;35.00
15172;DHT22;7686;52.184;9.280;2023-02-03T04:20:42;26.30;35.10
15172;DHT22;7686;52.184;9.280;2023-02-03T04:23:09;26.30;35.00
15172;DHT22;7686;52.184;9.280;2023-02-03T04:25:35;26.30;35.00
15172;DHT22;7686;52.184;9.280;2023-02-03T04:28:02;26.30;35.10
15172;DHT22;7686;52.184;9.280;2023-02-03T04:30:29;26.30;35.00
15172;DHT22;7686;52.184;9.280;2023-02-03T04:32:56;26.30;35.10
15172;DHT22;7686;52.184;9.280;2023-02-03T04:35:23;26.30;35.10
15172;DHT22;7686;52.184;9.280;2023-02-03T04:37:49;26.30;35.10
15172;DHT22;7686;52.184;9.280;2023-02-03T04:40:16;26.30;35.10
15172;DHT22;7686;52.184;9.280;2023-02-03T04:42:43;26.30;35.00
15172;DHT22;7686;52.184;9.280;2023-02-03T04:45:11;26.30;35.10
15172;DHT22;7686;52.184;9.280;2023-02-03T04:47:39;26.30;35.10
15172;DHT22;7686;52.184;9.280;2023-02-03T04:50:06;26.30;35.10
15172;DHT22;7686;52.184;9.280;2023-02-03T04:52:33;26.30;35.10
15172;DHT22;7686;52.184;9.280;2023-02-03T04:54:59;26.30;35.10
15172;DHT22;7686;52.184;9.280;2023-02-03T04:57:26;26.30;35.00
15172;DHT22;7686;52.184;9.280;2023-02-03T04:59:52;26.30;35.70
15172;DHT22;7686;52.184;9.280;2023-02-03T05:02:19;26.30;35.00
15172;DHT22;7686;52.184;9.280;2023-02-03T05:04:46;26.40;35.10
15172;DHT22;7686;52.184;9.280;2023-02-03T05:07:12;26.30;35.00
15172;DHT22;7686;52.184;9.280;2023-02-03T05:09:39;26.30;35.00
15172;DHT22;7686;52.184;9.280;2023-02-03T05:12:06;26.30;35.00
15172;DHT22;7686;52.184;9.280;2023-02-03T05:14:32;26.40;35.00
15172;DHT22;7686;52.184;9.280;2023-02-03T05:16:59;26.30;35.00
15172;DHT22;7686;52.184;9.280;2023-02-03T05:19:26;26.30;35.00
15172;DHT22;7686;52.184;9.280;2023-02-03T05:21:52;26.30;35.10
15172;DHT22;7686;52.184;9.280;2023-02-03T05:24:19;26.30;35.20
15172;DHT22;7686;52.184;9.280;2023-02-03T05:26:46;26.30;35.20
15172;DHT22;7686;52.184;9.280;2023-02-03T05:29:12;26.40;35.20
15172;DHT22;7686;52.184;9.280;2023-02-03T05:31:39;26.40;35.20
15172;DHT22;7686;52.184;9.280;2023-02-03T05:34:06;26.40;35.20
15172;DHT22;7686;52.184;9.280;2023-02-03T05:36:32;26.40;35.40
15172;DHT22;7686;52.184;9.280;2023-02-03T05:38:59;26.40;35.30
15172;DHT22;7686;52.184;9.280;2023-02-03T05:41:26;26.50;35.40
15172;DHT22;7686;52.184;9.280;2023-02-03T05:44:11;26.50;35.40
15172;DHT22;7686;52.184;9.280;2023-02-03T05:46:37;26.60;35.40
15172;DHT22;7686;52.184;9.280;2023-02-03T05:49:04;26.60;35.30
15172;DHT22;7686;52.184;9.280;2023-02-03T05:51:31;26.70;35.40
15172;DHT22;7686;52.184;9.280;2023-02-03T05:53:57;26.90;35.50
15172;DHT22;7686;52.184;9.280;2023-02-03T05:56:24;26.70;35.30
15172;DHT22;7686;52.184;9.280;2023-02-03T05:58:51;26.80;35.30
15172;DHT22;7686;52.184;9.280;2023-02-03T06:01:19;26.80;35.20
15172;DHT22;7686;52.184;9.280;2023-02-03T06:03:46;26.90;35.30
15172;DHT22;7686;52.184;9.280;2023-02-03T06:06:13;26.90;35.20
15172;DHT22;7686;52.184;9.280;2023-02-03T06:08:40;27.00;35.30
15172;DHT22;7686;52.184;9.280;2023-02-03T06:11:06;27.00;35.20
15172;DHT22;7686;52.184;9.280;2023-02-03T06:13:33;27.10;35.20
15172;DHT22;7686;52.184;9.280;2023-02-03T06:16:00;27.10;35.20
15172;DHT22;7686;52.184;9.280;2023-02-03T06:18:27;27.20;35.20
15172;DHT22;7686;52.184;9.280;2023-02-03T06:20:53;27.20;35.20
15172;DHT22;7686;52.184;9.280;2023-02-03T06:23:20;27.20;35.20
15172;DHT22;7686;52.184;9.280;2023-02-03T06:25:48;27.20;35.10
15172;DHT22;7686;52.184;9.280;2023-02-03T06:28:15;27.30;35.20
15172;DHT22;7686;52.184;9.280;2023-02-03T06:30:42;27.40;35.10
15172;DHT22;7686;52.184;9.280;2023-02-03T06:33:09;27.40;35.10
15172;DHT22;7686;52.184;9.280;2023-02-03T06:35:36;27.40;35.00
15172;DHT22;7686;52.184;9.280;2023-02-03T06:38:02;27.50;35.00
15172;DHT22;7686;52.184;9.280;2023-02-03T06:40:29;27.50;34.90
15172;DHT22;7686;52.184;9.280;2023-02-03T06:42:56;27.50;34.90
15172;DHT22;7686;52.184;9.280;2023-02-03T06:45:23;27.50;34.90
15172;DHT22;7686;52.184;9.280;2023-02-03T06:47:50;27.50;34.80
15172;DHT22;7686;52.184;9.280;2023-02-03T06:50:17;27.60;34.90
15172;DHT22;7686;52.184;9.280;2023-02-03T06:52:44;27.60;34.80
15172;DHT22;7686;52.184;9.280;2023-02-03T06:55:11;27.60;34.70
15172;DHT22;7686;52.184;9.280;2023-02-03T06:57:45;27.60;34.70
15172;DHT22;7686;52.184;9.280;2023-02-03T07:00:14;27.60;34.60
15172;DHT22;7686;52.184;9.280;2023-02-03T07:02:44;27.60;34.60
15172;DHT22;7686;52.184;9.280;2023-02-03T07:05:11;27.60;34.60
15172;DHT22;7686;52.184;9.280;2023-02-03T07:07:37;27.60;34.60
15172;DHT22;7686;52.184;9.280;2023-02-03T07:10:06;27.60;34.60
15172;DHT22;7686;52.184;9.280;2023-02-03T07:12:32;27.60;34.50
15172;DHT22;7686;52.184;9.280;2023-02-03T07:14:59;27.60;34.50
15172;DHT22;7686;52.184;9.280;2023-02-03T07:17:26;27.60;34.50
15172;DHT22;7686;52.184;9.280;2023-02-03T07:19:52;27.60;34.40
15172;DHT22;7686;52.184;9.280;2023-02-03T07:22:19;27.60;34.50
15172;DHT22;7686;52.184;9.280;2023-02-03T07:24:45;27.60;34.40
15172;DHT22;7686;52.184;9.280;2023-02-03T07:27:12;27.60;34.40
15172;DHT22;7686;52.184;9.280;2023-02-03T07:29:38;27.60;34.50
15172;DHT22;7686;52.184;9.280;2023-02-03T07:32:05;27.70;34.50
15172;DHT22;7686;52.184;9.280;2023-02-03T07:34:32;27.60;34.50
15172;DHT22;7686;52.184;9.280;2023-02-03T07:36:58;27.60;34.60
15172;DHT22;7686;52.184;9.280;2023-02-03T07:39:25;27.60;34.60
15172;DHT22;7686;52.184;9.280;2023-02-03T07:41:52;27.60;34.60
15172;DHT22;7686;52.184;9.280;2023-02-03T07:44:18;27.60;34.60
15172;DHT22;7686;52.184;9.280;2023-02-03T07:46:45;27.60;34.60
15172;DHT22;7686;52.184;9.280;2023-02-03T07:49:12;27.60;34.70
15172;DHT22;7686;52.184;9.280;2023-02-03T07:51:39;27.60;34.70
15172;DHT22;7686;52.184;9.280;2023-02-03T07:54:06;27.60;34.60
15172;DHT22;7686;52.184;9.280;2023-02-03T07:56:32;27.60;34.60
15172;DHT22;7686;52.184;9.280;2023-02-03T07:58:59;27.70;34.70
15172;DHT22;7686;52.184;9.280;2023-02-03T08:01:26;27.70;34.60
15172;DHT22;7686;52.184;9.280;2023-02-03T08:03:52;27.70;34.50
15172;DHT22;7686;52.184;9.280;2023-02-03T08:06:21;27.70;34.50
15172;DHT22;7686;52.184;9.280;2023-02-03T08:08:48;27.70;34.50
15172;DHT22;7686;52.184;9.280;2023-02-03T08:11:14;27.70;34.50
15172;DHT22;7686;52.184;9.280;2023-02-03T08:13:41;27.70;34.50
15172;DHT22;7686;52.184;9.280;2023-02-03T08:16:07;27.70;34.50
15172;DHT22;7686;52.184;9.280;2023-02-03T08:18:34;27.70;34.40
15172;DHT22;7686;52.184;9.280;2023-02-03T08:21:00;27.80;34.50
15172;DHT22;7686;52.184;9.280;2023-02-03T08:23:29;27.80;34.40
15172;DHT22;7686;52.184;9.280;2023-02-03T08:25:56;27.80;34.40
15172;DHT22;7686;52.184;9.280;2023-02-03T08:28:23;27.80;34.40
15172;DHT22;7686;52.184;9.280;2023-02-03T08:30:49;27.80;34.40
15172;DHT22;7686;52.184;9.280;2023-02-03T08:33:16;27.80;34.30
15172;DHT22;7686;52.184;9.280;2023-02-03T08:35:48;27.80;35.10
15172;DHT22;7686;52.184;9.280;2023-02-03T08:38:15;27.80;34.30
15172;DHT22;7686;52.184;9.280;2023-02-03T08:40:42;27.80;34.40
15172;DHT22;7686;52.184;9.280;2023-02-03T08:43:09;27.80;34.30
15172;DHT22;7686;52.184;9.280;2023-02-03T08:45:38;27.80;34.30
15172;DHT22;7686;52.184;9.280;2023-02-03T08:48:05;27.80;34.60
15172;DHT22;7686;52.184;9.280;2023-02-03T08:50:32;27.80;34.40
15172;DHT22;7686;52.184;9.280;2023-02-03T08:52:59;27.90;34.40
15172;DHT22;7686;52.184;9.280;2023-02-03T08:55:25;27.90;34.40
15172;DHT22;7686;52.184;9.280;2023-02-03T08:57:52;27.90;34.40
15172;DHT22;7686;52.184;9.280;2023-02-03T09:00:19;27.90;34.40
15172;DHT22;7686;52.184;9.280;2023-02-03T09:02:46;27.90;34.40
15172;DHT22;7686;52.184;9.280;2023-02-03T09:05:12;27.90;34.40
15172;DHT22;7686;52.184;9.280;2023-02-03T09:07:39;27.90;34.40
15172;DHT22;7686;52.184;9.280;2023-02-03T09:10:06;27.90;34.50
15172;DHT22;7686;52.184;9.280;2023-02-03T09:12:33;27.90;35.20
15172;DHT22;7686;52.184;9.280;2023-02-03T09:14:59;27.90;34.40
15172;DHT22;7686;52.184;9.280;2023-02-03T09:17:26;27.90;34.40
15172;DHT22;7686;52.184;9.280;2023-02-03T09:19:53;27.90;34.40
15172;DHT22;7686;52.184;9.280;2023-02-03T09:22:20;27.90;34.40
15172;DHT22;7686;52.184;9.280;2023-02-03T09:24:46;27.90;34.40
15172;DHT22;7686;52.184;9.280;2023-02-03T09:27:16;27.90;34.40
15172;DHT22;7686;52.184;9.280;2023-02-03T09:29:42;27.90;34.40
15172;DHT22;7686;52.184;9.280;2023-02-03T09:32:09;27.90;34.40
15172;DHT22;7686;52.184;9.280;2023-02-03T09:34:37;27.90;34.40
15172;DHT22;7686;52.184;9.280;2023-02-03T09:37:05;27.90;34.40
15172;DHT22;7686;52.184;9.280;2023-02-03T09:39:32;27.90;34.40
15172;DHT22;7686;52.184;9.280;2023-02-03T09:42:53;27.90;34.40
15172;DHT22;7686;52.184;9.280;2023-02-03T09:47:42;27.90;34.30
15172;DHT22;7686;52.184;9.280;2023-02-03T09:50:17;28.00;34.40
15172;DHT22;7686;52.184;9.280;2023-02-03T09:52:45;27.90;34.30
15172;DHT22;7686;52.184;9.280;2023-02-03T09:55:30;27.90;34.30
15172;DHT22;7686;52.184;9.280;2023-02-03T09:58:09;27.90;34.30
15172;DHT22;7686;52.184;9.280;2023-02-03T10:00:52;27.90;34.30
15172;DHT22;7686;52.184;9.280;2023-02-03T10:03:41;27.90;34.30
15172;DHT22;7686;52.184;9.280;2023-02-03T10:06:30;27.90;34.30
15172;DHT22;7686;52.184;9.280;2023-02-03T10:12:15;27.90;34.30
15172;DHT22;7686;52.184;9.280;2023-02-03T10:17:51;27.90;35.00
15172;DHT22;7686;52.184;9.280;2023-02-03T10:20:33;27.90;34.20
15172;DHT22;7686;52.184;9.280;2023-02-03T10:23:08;27.90;34.30
15172;DHT22;7686;52.184;9.280;2023-02-03T10:25:40;27.90;34.30
15172;DHT22;7686;52.184;9.280;2023-02-03T10:28:15;27.90;34.40
15172;DHT22;7686;52.184;9.280;2023-02-03T10:30:57;27.90;34.30
15172;DHT22;7686;52.184;9.280;2023-02-03T10:33:26;27.90;34.30
15172;DHT22;7686;52.184;9.280;2023-02-03T10:36:04;27.90;35.00
15172;DHT22;7686;52.184;9.280;2023-02-03T10:38:56;27.90;34.30
15172;DHT22;7686;52.184;9.280;2023-02-03T10:41:25;27.90;34.20
15172;DHT22;7686;52.184;9.280;2023-02-03T10:43:54;27.90;34.20
15172;DHT22;7686;52.184;9.280;2023-02-03T10:46:32;27.90;34.30
15172;DHT22;7686;52.184;9.280;2023-02-03T10:49:00;27.90;34.20
15172;DHT22;7686;52.184;9.280;2023-02-03T10:51:31;27.90;34.30
15172;DHT22;7686;52.184;9.280;2023-02-03T10:54:00;27.90;34.30
15172;DHT22;7686;52.184;9.280;2023-02-03T10:56:45;27.90;34.30
15172;DHT22;7686;52.184;9.280;2023-02-03T10:59:27;27.90;34.20
15172;DHT22;7686;52.184;9.280;2023-02-03T11:01:55;28.00;34.20
15172;DHT22;7686;52.184;9.280;2023-02-03T11:04:28;27.90;34.20
15172;DHT22;7686;52.184;9.280;2023-02-03T11:07:00;27.90;34.20
15172;DHT22;7686;52.184;9.280;2023-02-03T11:09:38;27.90;34.20
15172;DHT22;7686;52.184;9.280;2023-02-03T11:12:16;27.90;34.20
15172;DHT22;7686;52.184;9.280;2023-02-03T11:14:48;28.00;34.20
15172;DHT22;7686;52.184;9.280;2023-02-03T11:17:20;27.90;34.10
15172;DHT22;7686;52.184;9.280;2023-02-03T11:19:50;27.90;34.10
15172;DHT22;7686;52.184;9.280;2023-02-03T11:22:44;27.90;34.10
15172;DHT22;7686;52.184;9.280;2023-02-03T11:25:26;27.80;34.00
15172;DHT22;7686;52.184;9.280;2023-02-03T11:27:55;28.00;34.10
15172;DHT22;7686;52.184;9.280;2023-02-03T11:30:28;28.00;34.10
15172;DHT22;7686;52.184;9.280;2023-02-03T11:32:56;28.00;34.50
15172;DHT22;7686;52.184;9.280;2023-02-03T11:35:27;28.00;34.10
15172;DHT22;7686;52.184;9.280;2023-02-03T11:37:59;28.00;34.20
15172;DHT22;7686;52.184;9.280;2023-02-03T11:40:33;28.00;34.10
15172;DHT22;7686;52.184;9.280;2023-02-03T11:43:14;28.00;34.10
15172;DHT22;7686;52.184;9.280;2023-02-03T11:45:44;28.00;34.10
15172;DHT22;7686;52.184;9.280;2023-02-03T11:48:31;27.90;34.00
15172;DHT22;7686;52.184;9.280;2023-02-03T12:00:02;28.00;34.10
15172;DHT22;7686;52.184;9.280;2023-02-03T12:11:35;27.90;34.00
15172;DHT22;7686;52.184;9.280;2023-02-03T12:17:05;28.00;34.10
15172;DHT22;7686;52.184;9.280;2023-02-03T12:19:45;28.00;34.10
15172;DHT22;7686;52.184;9.280;2023-02-03T12:27:48;28.00;34.00
15172;DHT22;7686;52.184;9.280;2023-02-03T12:30:24;28.00;34.10
15172;DHT22;7686;52.184;9.280;2023-02-03T12:32:59;28.00;34.00
15172;DHT22;7686;52.184;9.280;2023-02-03T12:35:37;28.00;34.00
15172;DHT22;7686;52.184;9.280;2023-02-03T12:38:11;28.00;34.70
15172;DHT22;7686;52.184;9.280;2023-02-03T12:41:02;28.10;34.00
15172;DHT22;7686;52.184;9.280;2023-02-03T12:43:49;28.10;34.00
15172;DHT22;7686;52.184;9.280;2023-02-03T12:48:58;28.10;34.20
15172;DHT22;7686;52.184;9.280;2023-02-03T12:51:41;28.10;34.20
15172;DHT22;7686;52.184;9.280;2023-02-03T12:54:52;28.10;34.30
15172;DHT22;7686;52.184;9.280;2023-02-03T12:57:49;28.10;34.30
15172;DHT22;7686;52.184;9.280;2023-02-03T13:03:10;28.10;34.30
15172;DHT22;7686;52.184;9.280;2023-02-03T13:05:48;28.20;34.30
15172;DHT22;7686;52.184;9.280;2023-02-03T13:08:33;28.20;34.30
15172;DHT22;7686;52.184;9.280;2023-02-03T13:14:02;28.20;34.30
15172;DHT22;7686;52.184;9.280;2023-02-03T13:16:35;28.20;34.40
15172;DHT22;7686;52.184;9.280;2023-02-03T13:19:16;28.20;34.30
15172;DHT22;7686;52.184;9.280;2023-02-03T13:21:46;28.20;34.40
15172;DHT22;7686;52.184;9.280;2023-02-03T13:24:13;28.20;34.30
15172;DHT22;7686;52.184;9.280;2023-02-03T13:29:37;28.10;34.20
15172;DHT22;7686;52.184;9.280;2023-02-03T13:32:17;28.20;34.20
15172;DHT22;7686;52.184;9.280;2023-02-03T13:40:55;28.20;34.20
15172;DHT22;7686;52.184;9.280;2023-02-03T13:43:33;28.10;34.10
15172;DHT22;7686;52.184;9.280;2023-02-03T13:46:07;28.10;34.20
15172;DHT22;7686;52.184;9.280;2023-02-03T13:48:44;28.10;34.10
15172;DHT22;7686;52.184;9.280;2023-02-03T13:51:24;28.10;34.20
15172;DHT22;7686;52.184;9.280;2023-02-03T13:54:06;28.10;34.10
15172;DHT22;7686;52.184;9.280;2023-02-03T13:56:34;28.10;34.20
15172;DHT22;7686;52.184;9.280;2023-02-03T14:01:39;28.10;34.20
15172;DHT22;7686;52.184;9.280;2023-02-03T14:07:02;28.10;34.10
15172;DHT22;7686;52.184;9.280;2023-02-03T14:12:20;28.10;34.10
15172;DHT22;7686;52.184;9.280;2023-02-03T14:20:07;28.10;34.10
15172;DHT22;7686;52.184;9.280;2023-02-03T14:25:27;28.10;34.10
15172;DHT22;7686;52.184;9.280;2023-02-03T14:28:21;28.10;34.10
15172;DHT22;7686;52.184;9.280;2023-02-03T14:31:07;28.00;34.10
15172;DHT22;7686;52.184;9.280;2023-02-03T14:36:28;28.10;34.20
15172;DHT22;7686;52.184;9.280;2023-02-03T14:38:59;28.10;34.20
15172;DHT22;7686;52.184;9.280;2023-02-03T14:41:49;28.00;34.20
15172;DHT22;7686;52.184;9.280;2023-02-03T14:44:42;28.00;34.20
15172;DHT22;7686;52.184;9.280;2023-02-03T14:50:20;28.00;34.10
15172;DHT22;7686;52.184;9.280;2023-02-03T14:56:10;28.00;34.20
15172;DHT22;7686;52.184;9.280;2023-02-03T14:58:49;28.00;34.10
15172;DHT22;7686;52.184;9.280;2023-02-03T15:01:25;28.00;34.10
15172;DHT22;7686;52.184;9.280;2023-02-03T15:06:45;28.00;34.10
15172;DHT22;7686;52.184;9.280;2023-02-03T15:09:32;28.00;34.10
15172;DHT22;7686;52.184;9.280;2023-02-03T15:12:00;27.90;34.40
15172;DHT22;7686;52.184;9.280;2023-02-03T15:14:28;27.90;34.10
15172;DHT22;7686;52.184;9.280;2023-02-03T15:17:10;27.90;34.20
15172;DHT22;7686;52.184;9.280;2023-02-03T15:19:40;27.90;34.20
15172;DHT22;7686;52.184;9.280;2023-02-03T15:22:29;27.90;34.20
15172;DHT22;7686;52.184;9.280;2023-02-03T15:25:01;27.90;34.20
15172;DHT22;7686;52.184;9.280;2023-02-03T15:27:31;27.90;34.30
15172;DHT22;7686;52.184;9.280;2023-02-03T15:29:58;27.90;34.30
15172;DHT22;7686;52.184;9.280;2023-02-03T15:32:32;28.00;34.30
15172;DHT22;7686;52.184;9.280;2023-02-03T15:35:00;27.90;34.30
15172;DHT22;7686;52.184;9.280;2023-02-03T15:40:08;27.80;34.20
15172;DHT22;7686;52.184;9.280;2023-02-03T15:43:14;27.80;34.20
15172;DHT22;7686;52.184;9.280;2023-02-03T15:51:15;27.80;34.20
15172;DHT22;7686;52.184;9.280;2023-02-03T15:56:23;27.80;34.20
15172;DHT22;7686;52.184;9.280;2023-02-03T15:58:53;27.70;34.20
15172;DHT22;7686;52.184;9.280;2023-02-03T16:01:21;27.70;34.20
15172;DHT22;7686;52.184;9.280;2023-02-03T16:03:51;27.70;34.20
15172;DHT22;7686;52.184;9.280;2023-02-03T16:08:54;27.70;34.30
15172;DHT22;7686;52.184;9.280;2023-02-03T16:13:49;27.70;34.30
15172;DHT22;7686;52.184;9.280;2023-02-03T16:16:19;27.70;34.30
15172;DHT22;7686;52.184;9.280;2023-02-03T16:18:58;27.80;34.40
15172;DHT22;7686;52.184;9.280;2023-02-03T16:23:57;27.70;34.30
15172;DHT22;7686;52.184;9.280;2023-02-03T16:26:26;27.70;34.30
15172;DHT22;7686;52.184;9.280;2023-02-03T16:31:48;27.60;34.20
15172;DHT22;7686;52.184;9.280;2023-02-03T16:34:34;27.60;34.20
15172;DHT22;7686;52.184;9.280;2023-02-03T16:37:23;27.60;34.30
15172;DHT22;7686;52.184;9.280;2023-02-03T16:40:10;27.60;34.20
15172;DHT22;7686;52.184;9.280;2023-02-03T16:42:56;27.60;34.20
15172;DHT22;7686;52.184;9.280;2023-02-03T16:45:42;27.60;34.20
15172;DHT22;7686;52.184;9.280;2023-02-03T16:48:27;27.60;34.20
15172;DHT22;7686;52.184;9.280;2023-02-03T16:51:14;27.60;34.20
15172;DHT22;7686;52.184;9.280;2023-02-03T16:53:43;27.60;34.30
15172;DHT22;7686;52.184;9.280;2023-02-03T16:56:11;27.60;34.30
15172;DHT22;7686;52.184;9.280;2023-02-03T16:58:40;27.60;34.30
15172;DHT22;7686;52.184;9.280;2023-02-03T17:01:06;27.50;34.20
15172;DHT22;7686;52.184;9.280;2023-02-03T17:03:35;27.50;34.20
15172;DHT22;7686;52.184;9.280;2023-02-03T17:06:08;27.60;34.30
15172;DHT22;7686;52.184;9.280;2023-02-03T17:08:35;27.50;34.30
15172;DHT22;7686;52.184;9.280;2023-02-03T17:11:12;27.50;34.30
15172;DHT22;7686;52.184;9.280;2023-02-03T17:13:41;27.60;34.40
15172;DHT22;7686;52.184;9.280;2023-02-03T17:16:13;27.60;34.40
15172;DHT22;7686;52.184;9.280;2023-02-03T17:18:40;27.50;34.30
15172;DHT22;7686;52.184;9.280;2023-02-03T17:21:10;27.60;34.40
15172;DHT22;7686;52.184;9.280;2023-02-03T17:23:37;27.60;34.40
15172;DHT22;7686;52.184;9.280;2023-02-03T17:26:04;27.50;34.30
15172;DHT22;7686;52.184;9.280;2023-02-03T17:28:32;27.50;34.30
15172;DHT22;7686;52.184;9.280;2023-02-03T17:31:02;27.50;34.30
15172;DHT22;7686;52.184;9.280;2023-02-03T17:33:30;27.60;34.40
15172;DHT22;7686;52.184;9.280;2023-02-03T17:36:03;27.60;34.40
15172;DHT22;7686;52.184;9.280;2023-02-03T17:38:38;27.50;34.30
15172;DHT22;7686;52.184;9.280;2023-02-03T17:41:24;27.50;34.30
15172;DHT22;7686;52.184;9.280;2023-02-03T17:44:08;27.60;34.30
15172;DHT22;7686;52.184;9.280;2023-02-03T17:46:52;27.60;34.30
15172;DHT22;7686;52.184;9.280;2023-02-03T17:49:36;27.60;34.20
15172;DHT22;7686;52.184;9.280;2023-02-03T17:52:20;27.60;34.20
15172;DHT22;7686;52.184;9.280;2023-02-03T17:55:05;27.50;34.20
15172;DHT22;7686;52.184;9.280;2023-02-03T17:57:31;27.50;34.20
15172;DHT22;7686;52.184;9.280;2023-02-03T18:00:04;27.50;34.20
15172;DHT22;7686;52.184;9.280;2023-02-03T18:02:31;27.50;34.20
15172;DHT22;7686;52.184;9.280;2023-02-03T18:04:58;27.30;34.00
15172;DHT22;7686;52.184;9.280;2023-02-03T18:07:25;27.50;34.20
15172;DHT22;7686;52.184;9.280;2023-02-03T18:09:51;27.50;34.20
15172;DHT22;7686;52.184;9.280;2023-02-03T18:12:18;27.50;34.20
15172;DHT22;7686;52.184;9.280;2023-02-03T18:14:44;27.50;34.20
15172;DHT22;7686;52.184;9.280;2023-02-03T18:17:11;27.50;34.20
15172;DHT22;7686;52.184;9.280;2023-02-03T18:19:37;27.40;34.10
15172;DHT22;7686;52.184;9.280;2023-02-03T18:22:06;27.40;34.10
15172;DHT22;7686;52.184;9.280;2023-02-03T18:24:33;27.40;34.10
15172;DHT22;7686;52.184;9.280;2023-02-03T18:26:59;27.40;34.10
15172;DHT22;7686;52.184;9.280;2023-02-03T18:29:27;27.40;34.10